Valle, Arizona
Current Conditions -  °F | °C
As of 2:54 AM on Sunday 25 Jan 2015 (Local Time) from KGCN Reporting Station
Clear Clear  
Wind Chill: 20°   Ceiling: Unl
Heat Index: 20°   Visibility: 10mi
Dew Point: 15°   Wind: 0mph
Humidity: 81%   Direction: NA
Pressure: 30.33"   Gusts: NA
Location:  35.65°N, 112.15°W
Report Text: KGCN 250954Z 00000KT 10SM CLR M07/M09 A3033 RMK AO2 SLP264 T10671094 $
Loading
Personal Weather Stations






























Interactive Weather Map New forecast layout! Learn more

10-Day Weather Forecast

Advertisements
Track Severe Weather on mobile